Terminal Aerodrome Forecast
Issued by NWS Huntsville, AL

Home | Current Version | Previous Version | Text Only | Print | Product List | Glossary On
Versions: 1 2 3 4 5 6 7 8 9 10 11 12 13 14 15 16 17 18 19 20 21 22 23 24 25 26 27 28 29 30 31 32 33 34 35 36 37 38 39
000
FTUS44 KHUN 041126
TAFHSV
TAF
KHSV 041126Z 0412/0512 22008KT P6SM -SHRA SCT010 OVC020
      TEMPO 0415/0419 5SM TSRA OVC020CB
     FM041900 24012KT P6SM OVC040
     FM050100 17005KT P6SM -SHRA OVC050 PROB30 0501/0505 5SM TSRA
      OVC020CB
     FM050600 19004KT 4SM BR OVC015=

USA.gov is the U.S. government's official web portal to all federal, state and local government web resources and services.